Jemez Springs, Valles Caldera, New Mexico Weather observations

Data are for 10 minute period ending at time listed.
 Day   Time   Solar   Ave.   Ave.  Ave.  Vector  Max.   Baro.   Total    
  of    of     Rad.   Air    Rel.  Wind   Wind   Wind  Press.  Precip.   
Year   Day            Temp.  Hum.  Speed  Dir.   Gust                    
2016   (MST)  Kw/m2    F      %     mph   deg.    mph    mb.     in.     
-------------------------------------------------------------------------
 146    3:30   100.00  99999.0   99999  99999.0   99999   99999.0   99999.0   99999.00 
 146    3:40   100.00  99999.0   99999  99999.0   99999   99999.0   99999.0   99999.00 
 146    3:50   100.00  99999.0   99999  99999.0   99999   99999.0   99999.0   99999.00 
 146    4:00   100.00  99999.0   99999  99999.0   99999   99999.0   99999.0   99999.00 
 146    4:10   100.00  99999.0   99999  99999.0   99999   99999.0   99999.0   99999.00 
 146    4:20   100.00  99999.0   99999  99999.0   99999   99999.0   99999.0   99999.00 
 146    4:30   0.00   41.8    30    7.1    24    14.3   809.9    0.00 
 146    4:40   0.00   42.3    29    7.5     9    13.7   810.0    0.00 
 146    4:50   0.00   42.3    29    7.9    11    14.3   810.0    0.00 
 146    5:00   0.01   42.1    30    7.1    10    12.5   810.2    0.00 
 146    5:10   0.01   41.9    30    7.6     9    12.5   810.3    0.00 
 146    5:20   0.02   42.0    30    7.5    12    13.7   810.3    0.00 
 146    5:30   0.02   42.0    30    7.7   359    13.7   810.3    0.00 
 146    5:40   0.02   42.1    30    8.4     2    14.9   810.3    0.00 
 146    5:50   0.03   42.3    30    8.3     6    13.7   810.4    0.00 
 146    6:00   0.03   42.3    31    7.7    11    11.9   810.5    0.00 
 146    6:10   0.04   43.0    31    7.1     8    11.9   810.6    0.00 
 146    6:20   0.11   43.6    32    4.9     9     9.6   810.6    0.00 
 146    6:30   0.28   46.4    30    4.1     6     7.8   810.7    0.00 
 146    6:40   0.32   49.4    28    4.0    40     6.0   810.7    0.00 
 146    6:50   0.36   51.8    27    3.9    34     6.6   810.8    0.00 
 146    7:00   0.40   53.5    26    4.4    29     7.2   810.8    0.00 
 146    7:10   0.44   56.0    24    3.4    41     6.6   810.8    0.00 
 146    7:20   0.48   58.7    23    3.2    17     6.0   810.7    0.00 
 146    7:30   0.51   61.3    20    4.2    69     8.4   810.6    0.00 
 146    7:40   0.55   62.2    18    4.1    77     7.8   810.7    0.00 
 146    7:50   0.58   62.5    18    4.4    84     7.8   810.6    0.00 
 146    8:00   0.62   63.5    18    5.2   129     9.6   810.6    0.00 
 146    8:10   0.65   62.8    17    7.6   137    19.1   810.5    0.00 
 146    8:20   0.69   63.6    16    6.2    76    17.9   810.5    0.00 
 146    8:30   0.72   62.9    17    9.3    93    17.9   810.4    0.00 
 146    8:40   0.75   63.3    16    7.5   159    14.9   810.3    0.00 
 146    8:50   0.78   64.0    16    7.7   149    22.7   810.3    0.00 
 146    9:00   0.80   63.8    16    9.1   166    14.6   810.2    0.00 
 146    9:10   0.83   64.3    16    6.4   133    14.0   810.2    0.00 
 146    9:20   0.86   65.0    15    5.6    69    14.3   810.0    0.00 
 146    9:30   0.88   66.7    14    4.6    83     9.0   809.9    0.00 
 146    9:40   0.90   65.7    13    8.4   155    19.1   809.7    0.00 
 146    9:50   0.93   66.3    12    7.3   102    17.9   809.8    0.00 
 146   10:00   0.94   66.4    13    7.2    48    13.7   809.7    0.00 
 146   10:10   0.96   67.0    13    8.4    31    17.3   809.5    0.00 
 146   10:20   0.97   67.9    13    6.3   322    11.9   809.5    0.00 
 146   10:30   0.98   69.7    12    6.5   140    14.9   809.3    0.00 
 146   10:40   0.99   68.7    12    8.2   176    16.1   809.3    0.00 
 146   10:50   1.00   67.9    12    6.6   145    13.1   809.3    0.00 
 146   11:00   1.01   68.8    12    5.5   145    11.9   809.2    0.00 
 146   11:10   1.02   68.9    12    8.1   169    17.3   809.2    0.00 
 146   11:20   1.02   69.2    12    8.1   184    19.1   809.1    0.00 
 146   11:30   1.03   69.6    12    6.7   161    14.3   809.0    0.00 
 146   11:40   1.03   69.9    11    8.2   157    19.1   808.9    0.00 
 146   11:50   1.04   70.1    11    7.8   143    19.7   808.8    0.00 
 146   12:00   1.00   69.9    11   10.2   163    17.9   808.6    0.00 
 146   12:10   1.04   70.1    10   11.7   172    23.3   808.5    0.00 
 146   12:20   1.04   70.4     9    9.5   168    15.5   808.5    0.00 
 146   12:30   1.02   70.5    10   10.3   176    22.1   808.4    0.00 
 146   12:40   1.01   70.4    10    7.9   155    18.5   808.4    0.00 
 146   12:50   1.01   72.1    11    7.1   180    12.5   808.4    0.00 
 146   13:00   1.00   71.7    11    9.9   184    17.9   808.1    0.00 
 146   13:10   0.98   71.3    11   12.4   183    20.9   808.2    0.00 
 146   13:20   0.96   71.7    12   11.5   189    19.7   808.3    0.00 
 146   13:30   0.95   72.2    12    7.8   193    18.5   808.3    0.00 
 146   13:40   0.93   71.0    12    8.2   180    14.9   808.3    0.00 
 146   13:50   0.91   71.7    11    8.3   172    17.3   808.3    0.00 
 146   14:00   0.89   71.7    11    7.0   158    20.9   808.2    0.00 
 146   14:10   0.87   72.1    11    7.0   167    14.9   808.1    0.00 
 146   14:20   0.85   72.2    11    7.8   165    15.5   807.9    0.00 
 146   14:30   0.83   72.3    11    9.0   175    17.9   807.8    0.00 
 146   14:40   0.80   72.9    11    6.8   174    14.9   807.7    0.00 
 146   14:50   0.78   72.2    11    5.2   181    13.7   807.5    0.00 
 146   15:00   0.75   72.8    10    8.2   171    14.9   807.4    0.00 
 146   15:10   0.73   73.1    10    3.9   178    10.2   807.3    0.00 
 146   15:20   0.44   72.8    10    8.2   165    16.1   807.2    0.00 
 146   15:30   0.20   71.1    10    4.3   118    15.5   807.1    0.00 
 146   15:40   0.20   70.8    11    4.8   168    10.2   807.0    0.00 
 146   15:50   0.20   71.1    11    6.0   187    19.7   807.0    0.00 
 146   16:00   0.16   69.0    14   10.3   172    31.6   807.4    0.00 
 146   16:10   0.14   68.7    14    7.6   350    16.1   807.3    0.00 
 146   16:20   0.11   68.5    15    3.6   315     9.0   807.1    0.00 
 146   16:30   0.09   68.6    15    3.3   285     9.6   807.2    0.00 
 146   16:40   0.07   68.1    15    7.6   203    19.7   807.3    0.00 
 146   16:50   0.09   68.2    15    3.2   332     9.6   807.1    0.00 
 146   17:00   0.10   67.8    16    8.1   352    16.7   806.9    0.00 
 146   17:10   0.08   67.5    16    3.3   322     6.6   807.0    0.00 
 146   17:20   0.05   67.2    16    8.7   352    19.1   807.3    0.00 
 146   17:30   0.06   66.9    17    5.4   336    14.3   807.0    0.00 
 146   17:40   0.11   66.7    18    6.4    17    12.5   807.0    0.00 
 146   17:50   0.06   65.9    19    5.0    47     9.6   806.9    0.00 
 146   18:00   0.03   65.6    20    5.1    36     9.0   806.6    0.00 
 146   18:10   0.02   65.5    19    6.9   350    11.9   806.4    0.00 
 146   18:20   0.03   65.9    18    6.7   349    11.3   806.3    0.00 
 146   18:30   0.02   65.8    19    3.8   350     7.2   806.2    0.00 
 146   18:40   0.01   65.1    20    4.6     7     9.6   806.3    0.00 
 146   18:50   0.01   65.4    19    6.4    33    15.5   806.2    0.00 
 146   19:00   0.01   65.3    19    4.0    48     6.6   806.2    0.00 
 146   19:10   0.00   65.0    20    4.3   336     7.8   806.2    0.00 
 146   19:20   0.00   64.2    21    3.1     4     4.8   806.0    0.00 
 146   19:30   0.00   63.8    21    3.5     6     6.0   806.0    0.00 
 146   19:40   0.00   63.6    22    4.4     1     7.8   806.2    0.00 
 146   19:50   0.00   63.6    21    5.0   353     8.4   806.1    0.00 
 146   20:00   0.00   63.7    21    5.2     4     8.4   806.2    0.00 
 146   20:10   0.00   63.4    21    3.2    12     6.0   806.3    0.00 
 146   20:20   0.00   62.7    22    1.9     8     3.6   806.3    0.00 
 146   20:30   0.00   60.9    25    2.5     9     4.2   806.3    0.00 
 146   20:40   0.00   61.1    25    3.8   352     7.2   806.4    0.00 
 146   20:50   0.00   61.5    24    3.2    11     5.4   806.5    0.00 
 146   21:00   0.00   61.5    24    2.9    12     5.4   806.6    0.00 
 146   21:10   0.00   60.9    25    3.1    26     4.2   806.7    0.00 
 146   21:20   0.00   60.6    25    4.1    20     7.8   806.7    0.00 
 146   21:30   0.00   60.0    26    4.1     7     6.6   806.8    0.00 
 146   21:40   0.00   60.3    24    4.2   338     7.2   807.0    0.00 
 146   21:50   0.00   60.4    24    3.3   346     7.8   807.1    0.00 
 146   22:00   0.00   59.8    26    3.1    21     5.4   807.1    0.00 
 146   22:10   0.00   59.3    26    4.2     3     7.8   806.9    0.00 
 146   22:20   0.00   59.3    26    5.6     0     9.6   807.0    0.00 
 146   22:30   0.00   58.7    26    3.5   344     7.2   807.0    0.00 
 146   22:40   0.00   58.2    27    3.9   357     6.6   806.9    0.00 
 146   22:50   0.00   57.6    28    3.5     4     9.0   806.8    0.00 
 146   23:00   0.00   57.5    28    4.9   356     9.6   806.8    0.00 
 146   23:10   0.00   57.5    28    4.5   358     7.5   806.9    0.00 
 146   23:20   0.00   57.4    27    4.1   342     7.2   806.9    0.00 
 146   23:30   0.00   57.4    28    5.8   358     9.6   806.8    0.00 
 146   23:40   0.00   57.2    28    3.9   348     6.9   806.8    0.00 
 146   23:50   0.00   56.7    28    4.2   349    10.2   806.6    0.00 
 147    0:00   0.00   56.1    28    4.2    24     9.6   806.5    0.00 
 147    0:10   0.00   54.6    30    4.6   240     7.2   806.6    0.00 
 147    0:20   0.00   53.7    32    3.2    17     6.6   806.7    0.00 
 147    0:30   0.00   54.2    30    5.1    10     7.2   806.7    0.00 
 147    0:40   0.00   55.0    28    5.5   356    12.5   806.6    0.00 
 147    0:50   0.00   55.2    28    5.7    16     9.3   806.6    0.00 
 147    1:00   0.00   54.0    29    5.2    26     8.4   806.7    0.00 
 147    1:10   0.00   53.5    30    5.6    24    10.8   806.7    0.00 
 147    1:20   0.00   53.5    30    6.7     7    11.3   806.6    0.00 
 147    1:30   0.00   53.7    29    5.3    11    10.2   806.6    0.00 
 147    1:40   0.00   52.9    31    4.7    18     6.6   806.6    0.00 
 147    1:50   0.00   52.1    32    4.0    24     6.0   806.6    0.00 
 147    2:00   0.00   51.4    32    3.7    15     6.6   806.6    0.00 
 147    2:10   0.00   50.8    33    4.9    22     7.8   806.4    0.00 
 147    2:20   0.00   50.8    32    5.0    12     9.6   806.3    0.00 
 147    2:30   0.00   50.9    32    6.8     8    11.3   806.3    0.00 
 147    2:40   0.00   50.7    32    6.1   358    11.9   806.4    0.00 
 147    2:50   0.00   50.3    32    5.3   360    10.2   806.3    0.00 
 147    3:00   0.00   49.8    32    5.8     0    10.8   806.2    0.00 
 147    3:10   0.00   49.3    33    5.4     9    10.2   806.2    0.00 
 147    3:20   0.00   48.8    33    6.1    15    10.5   806.2    0.00 

Return to Jemez Springs, Valles Caldera graphs page.


Western Regional Climate Center,wrcc@dri.edu